aviador You're here:

VEGT Decoded Metar

GAUHATI in INDIA
Report Time2017-11-25 03:00:00
UTC Time2017-11-25 03:33:43
Flight Rules ifr IFR
WindCalm
Visibility2500 m
Phenomena:Mist
Clouds:N/A
CeilingNone
Temp22°C (ISA +7)
Dew Point22°C (100% RH)
QNH1016 hPa
Density Alt1,280 ft
Elevation177 ft
Report Wrong Elevation
Raw Report
METAR VEGT 250300Z 00000KT 2500 BR NSC 22/22 Q1016 NOSIG=

Extra information for VEGT:More info

Airport Information Weather charts Add Link Nearby Venues Social comments